sensor_id;sensor_type;location;lat;lon;timestamp;temperature;humidity
51982;DHT22;37998;53.416;6.730;2023-05-20T00:00:44;12.40;99.90
51982;DHT22;37998;53.416;6.730;2023-05-20T00:03:11;12.50;99.90
51982;DHT22;37998;53.416;6.730;2023-05-20T00:05:36;12.50;99.90
51982;DHT22;37998;53.416;6.730;2023-05-20T00:08:02;12.50;99.90
51982;DHT22;37998;53.416;6.730;2023-05-20T00:10:31;12.50;99.90
51982;DHT22;37998;53.416;6.730;2023-05-20T00:12:57;12.50;99.90
51982;DHT22;37998;53.416;6.730;2023-05-20T00:15:23;12.50;99.90
51982;DHT22;37998;53.416;6.730;2023-05-20T00:17:49;12.50;99.90
51982;DHT22;37998;53.416;6.730;2023-05-20T00:20:15;12.50;99.90
51982;DHT22;37998;53.416;6.730;2023-05-20T00:22:41;12.40;99.90
51982;DHT22;37998;53.416;6.730;2023-05-20T00:25:07;12.50;99.90
51982;DHT22;37998;53.416;6.730;2023-05-20T00:27:33;12.40;99.90
51982;DHT22;37998;53.416;6.730;2023-05-20T00:29:59;12.50;99.90
51982;DHT22;37998;53.416;6.730;2023-05-20T00:32:25;12.40;99.90
51982;DHT22;37998;53.416;6.730;2023-05-20T00:34:57;12.40;99.90
51982;DHT22;37998;53.416;6.730;2023-05-20T00:37:24;12.50;99.90
51982;DHT22;37998;53.416;6.730;2023-05-20T00:39:50;12.40;99.90
51982;DHT22;37998;53.416;6.730;2023-05-20T00:42:23;12.40;99.90
51982;DHT22;37998;53.416;6.730;2023-05-20T00:44:50;12.50;99.90
51982;DHT22;37998;53.416;6.730;2023-05-20T00:47:22;12.40;99.90
51982;DHT22;37998;53.416;6.730;2023-05-20T00:49:50;12.50;99.90
51982;DHT22;37998;53.416;6.730;2023-05-20T00:52:18;12.40;99.90
51982;DHT22;37998;53.416;6.730;2023-05-20T00:54:44;12.40;99.90
51982;DHT22;37998;53.416;6.730;2023-05-20T00:57:11;12.40;99.90
51982;DHT22;37998;53.416;6.730;2023-05-20T00:59:38;12.50;99.90
51982;DHT22;37998;53.416;6.730;2023-05-20T01:02:04;12.40;99.90
51982;DHT22;37998;53.416;6.730;2023-05-20T01:04:31;12.40;99.90
51982;DHT22;37998;53.416;6.730;2023-05-20T01:06:58;12.40;99.90
51982;DHT22;37998;53.416;6.730;2023-05-20T01:09:25;12.40;99.90
51982;DHT22;37998;53.416;6.730;2023-05-20T01:11:58;12.40;99.90
51982;DHT22;37998;53.416;6.730;2023-05-20T01:14:26;12.40;99.90
51982;DHT22;37998;53.416;6.730;2023-05-20T01:16:54;12.30;99.90
51982;DHT22;37998;53.416;6.730;2023-05-20T01:19:35;12.30;99.90
51982;DHT22;37998;53.416;6.730;2023-05-20T01:22:05;12.40;99.90
51982;DHT22;37998;53.416;6.730;2023-05-20T01:24:31;12.30;99.90
51982;DHT22;37998;53.416;6.730;2023-05-20T01:26:59;12.30;99.90
51982;DHT22;37998;53.416;6.730;2023-05-20T01:29:25;12.30;99.90
51982;DHT22;37998;53.416;6.730;2023-05-20T01:31:52;12.30;99.90
51982;DHT22;37998;53.416;6.730;2023-05-20T01:34:19;12.30;99.90
51982;DHT22;37998;53.416;6.730;2023-05-20T01:36:47;12.30;99.90
51982;DHT22;37998;53.416;6.730;2023-05-20T01:39:14;12.30;99.90
51982;DHT22;37998;53.416;6.730;2023-05-20T01:41:41;12.20;99.90
51982;DHT22;37998;53.416;6.730;2023-05-20T01:44:07;12.20;99.90
51982;DHT22;37998;53.416;6.730;2023-05-20T01:46:34;12.20;99.90
51982;DHT22;37998;53.416;6.730;2023-05-20T01:49:00;12.20;99.90
51982;DHT22;37998;53.416;6.730;2023-05-20T01:51:26;12.20;99.90
51982;DHT22;37998;53.416;6.730;2023-05-20T01:53:52;12.10;99.90
51982;DHT22;37998;53.416;6.730;2023-05-20T01:56:18;12.10;99.90
51982;DHT22;37998;53.416;6.730;2023-05-20T01:58:44;12.10;99.90
51982;DHT22;37998;53.416;6.730;2023-05-20T02:01:10;12.10;99.90
51982;DHT22;37998;53.416;6.730;2023-05-20T02:03:35;12.10;99.90
51982;DHT22;37998;53.416;6.730;2023-05-20T02:06:01;12.00;99.90
51982;DHT22;37998;53.416;6.730;2023-05-20T02:08:27;12.00;99.90
51982;DHT22;37998;53.416;6.730;2023-05-20T02:10:53;12.10;99.90
51982;DHT22;37998;53.416;6.730;2023-05-20T02:13:19;12.00;99.90
51982;DHT22;37998;53.416;6.730;2023-05-20T02:15:45;12.00;99.90
51982;DHT22;37998;53.416;6.730;2023-05-20T02:18:10;12.00;99.90
51982;DHT22;37998;53.416;6.730;2023-05-20T02:20:43;12.00;99.90
51982;DHT22;37998;53.416;6.730;2023-05-20T02:23:09;12.00;99.90
51982;DHT22;37998;53.416;6.730;2023-05-20T02:25:35;12.00;99.90
51982;DHT22;37998;53.416;6.730;2023-05-20T02:28:01;12.00;99.90
51982;DHT22;37998;53.416;6.730;2023-05-20T02:30:30;12.00;99.90
51982;DHT22;37998;53.416;6.730;2023-05-20T02:32:56;12.00;99.90
51982;DHT22;37998;53.416;6.730;2023-05-20T02:35:22;11.90;99.90
51982;DHT22;37998;53.416;6.730;2023-05-20T02:37:48;12.00;99.90
51982;DHT22;37998;53.416;6.730;2023-05-20T02:40:14;11.90;99.90
51982;DHT22;37998;53.416;6.730;2023-05-20T02:42:40;11.90;99.90
51982;DHT22;37998;53.416;6.730;2023-05-20T02:45:07;11.90;99.90
51982;DHT22;37998;53.416;6.730;2023-05-20T02:47:33;11.90;99.90
51982;DHT22;37998;53.416;6.730;2023-05-20T02:49:59;11.90;99.90
51982;DHT22;37998;53.416;6.730;2023-05-20T02:52:24;11.80;99.90
51982;DHT22;37998;53.416;6.730;2023-05-20T02:54:50;11.80;99.90
51982;DHT22;37998;53.416;6.730;2023-05-20T02:57:17;11.80;99.90
51982;DHT22;37998;53.416;6.730;2023-05-20T02:59:43;11.80;99.90
51982;DHT22;37998;53.416;6.730;2023-05-20T03:02:09;11.80;99.90
51982;DHT22;37998;53.416;6.730;2023-05-20T03:04:35;11.80;99.90
51982;DHT22;37998;53.416;6.730;2023-05-20T03:07:06;11.80;99.90
51982;DHT22;37998;53.416;6.730;2023-05-20T03:09:33;11.90;99.90
51982;DHT22;37998;53.416;6.730;2023-05-20T03:11:59;11.70;99.90
51982;DHT22;37998;53.416;6.730;2023-05-20T03:14:25;11.70;99.90
51982;DHT22;37998;53.416;6.730;2023-05-20T03:16:51;11.70;99.90
51982;DHT22;37998;53.416;6.730;2023-05-20T03:19:20;11.70;99.90
51982;DHT22;37998;53.416;6.730;2023-05-20T03:21:47;11.70;99.90
51982;DHT22;37998;53.416;6.730;2023-05-20T03:24:13;11.60;99.90
51982;DHT22;37998;53.416;6.730;2023-05-20T03:26:39;11.50;99.90
51982;DHT22;37998;53.416;6.730;2023-05-20T03:29:08;11.60;99.90
51982;DHT22;37998;53.416;6.730;2023-05-20T03:31:35;11.50;99.90
51982;DHT22;37998;53.416;6.730;2023-05-20T03:34:01;11.60;99.90
51982;DHT22;37998;53.416;6.730;2023-05-20T03:36:27;11.50;99.90
51982;DHT22;37998;53.416;6.730;2023-05-20T03:38:53;11.60;99.90
51982;DHT22;37998;53.416;6.730;2023-05-20T03:41:19;11.60;99.90
51982;DHT22;37998;53.416;6.730;2023-05-20T03:43:45;11.60;99.90
51982;DHT22;37998;53.416;6.730;2023-05-20T03:46:11;11.60;99.90
51982;DHT22;37998;53.416;6.730;2023-05-20T03:48:37;11.60;99.90
51982;DHT22;37998;53.416;6.730;2023-05-20T03:51:03;11.60;99.90
51982;DHT22;37998;53.416;6.730;2023-05-20T03:53:29;11.60;99.90
51982;DHT22;37998;53.416;6.730;2023-05-20T03:55:55;11.70;99.90
51982;DHT22;37998;53.416;6.730;2023-05-20T03:58:21;11.70;99.90
51982;DHT22;37998;53.416;6.730;2023-05-20T04:00:47;11.70;99.90
51982;DHT22;37998;53.416;6.730;2023-05-20T04:03:14;11.70;99.90
51982;DHT22;37998;53.416;6.730;2023-05-20T04:05:40;11.80;99.90
51982;DHT22;37998;53.416;6.730;2023-05-20T04:08:14;11.80;99.90
51982;DHT22;37998;53.416;6.730;2023-05-20T04:10:40;11.80;99.90
51982;DHT22;37998;53.416;6.730;2023-05-20T04:13:10;11.80;99.90
51982;DHT22;37998;53.416;6.730;2023-05-20T04:15:37;11.80;99.90
51982;DHT22;37998;53.416;6.730;2023-05-20T04:18:04;11.80;99.90
51982;DHT22;37998;53.416;6.730;2023-05-20T04:20:33;11.90;99.90
51982;DHT22;37998;53.416;6.730;2023-05-20T04:22:59;12.00;99.90
51982;DHT22;37998;53.416;6.730;2023-05-20T04:25:25;12.10;99.90
51982;DHT22;37998;53.416;6.730;2023-05-20T04:27:52;12.00;99.90
51982;DHT22;37998;53.416;6.730;2023-05-20T04:30:22;12.00;99.90
51982;DHT22;37998;53.416;6.730;2023-05-20T04:32:49;12.10;99.90
51982;DHT22;37998;53.416;6.730;2023-05-20T04:35:15;12.10;99.90
51982;DHT22;37998;53.416;6.730;2023-05-20T04:37:44;12.30;99.90
51982;DHT22;37998;53.416;6.730;2023-05-20T04:40:13;12.20;99.90
51982;DHT22;37998;53.416;6.730;2023-05-20T04:42:40;12.20;99.90
51982;DHT22;37998;53.416;6.730;2023-05-20T04:45:06;12.20;99.90
51982;DHT22;37998;53.416;6.730;2023-05-20T04:47:34;12.20;99.90
51982;DHT22;37998;53.416;6.730;2023-05-20T04:50:07;12.20;99.90
51982;DHT22;37998;53.416;6.730;2023-05-20T04:52:39;12.20;99.90
51982;DHT22;37998;53.416;6.730;2023-05-20T04:55:07;12.20;99.90
51982;DHT22;37998;53.416;6.730;2023-05-20T04:57:37;12.10;99.90
51982;DHT22;37998;53.416;6.730;2023-05-20T05:00:10;12.10;99.90
51982;DHT22;37998;53.416;6.730;2023-05-20T05:02:37;12.10;99.90
51982;DHT22;37998;53.416;6.730;2023-05-20T05:05:03;12.10;99.90
51982;DHT22;37998;53.416;6.730;2023-05-20T05:07:30;12.10;99.90
51982;DHT22;37998;53.416;6.730;2023-05-20T05:09:56;12.10;99.90
51982;DHT22;37998;53.416;6.730;2023-05-20T05:12:22;12.10;99.90
51982;DHT22;37998;53.416;6.730;2023-05-20T05:14:48;12.10;99.90
51982;DHT22;37998;53.416;6.730;2023-05-20T05:17:14;12.10;99.90
51982;DHT22;37998;53.416;6.730;2023-05-20T05:19:40;12.10;99.90
51982;DHT22;37998;53.416;6.730;2023-05-20T05:22:07;12.10;99.90
51982;DHT22;37998;53.416;6.730;2023-05-20T05:24:34;12.20;99.90
51982;DHT22;37998;53.416;6.730;2023-05-20T05:27:00;12.20;99.90
51982;DHT22;37998;53.416;6.730;2023-05-20T05:29:26;12.20;99.90
51982;DHT22;37998;53.416;6.730;2023-05-20T05:31:52;12.30;99.90
51982;DHT22;37998;53.416;6.730;2023-05-20T05:34:18;12.30;99.90
51982;DHT22;37998;53.416;6.730;2023-05-20T05:36:44;12.30;99.90
51982;DHT22;37998;53.416;6.730;2023-05-20T05:39:09;12.40;99.90
51982;DHT22;37998;53.416;6.730;2023-05-20T05:41:36;12.30;99.90
51982;DHT22;37998;53.416;6.730;2023-05-20T05:44:01;12.40;99.90
51982;DHT22;37998;53.416;6.730;2023-05-20T05:46:28;12.40;99.90
51982;DHT22;37998;53.416;6.730;2023-05-20T05:48:54;12.40;99.90
51982;DHT22;37998;53.416;6.730;2023-05-20T05:51:20;12.40;99.90
51982;DHT22;37998;53.416;6.730;2023-05-20T05:53:48;12.40;99.90
51982;DHT22;37998;53.416;6.730;2023-05-20T05:56:14;12.50;99.90
51982;DHT22;37998;53.416;6.730;2023-05-20T05:58:39;12.60;99.90
51982;DHT22;37998;53.416;6.730;2023-05-20T06:01:06;12.60;99.90
51982;DHT22;37998;53.416;6.730;2023-05-20T06:03:32;12.60;99.90
51982;DHT22;37998;53.416;6.730;2023-05-20T06:05:58;12.70;99.90
51982;DHT22;37998;53.416;6.730;2023-05-20T06:08:24;12.70;99.90
51982;DHT22;37998;53.416;6.730;2023-05-20T06:10:51;12.70;99.90
51982;DHT22;37998;53.416;6.730;2023-05-20T06:13:23;12.70;99.90
51982;DHT22;37998;53.416;6.730;2023-05-20T06:15:49;12.70;99.90
51982;DHT22;37998;53.416;6.730;2023-05-20T06:18:16;12.80;99.90
51982;DHT22;37998;53.416;6.730;2023-05-20T06:20:42;12.80;99.90
51982;DHT22;37998;53.416;6.730;2023-05-20T06:23:07;12.90;99.90
51982;DHT22;37998;53.416;6.730;2023-05-20T06:25:49;12.90;99.90
51982;DHT22;37998;53.416;6.730;2023-05-20T06:28:15;12.90;99.90
51982;DHT22;37998;53.416;6.730;2023-05-20T06:30:41;13.00;99.90
51982;DHT22;37998;53.416;6.730;2023-05-20T06:33:07;13.00;99.90
51982;DHT22;37998;53.416;6.730;2023-05-20T06:35:37;13.10;99.90
51982;DHT22;37998;53.416;6.730;2023-05-20T06:38:03;13.10;99.90
51982;DHT22;37998;53.416;6.730;2023-05-20T06:40:29;13.10;99.90
51982;DHT22;37998;53.416;6.730;2023-05-20T06:42:55;13.20;99.90
51982;DHT22;37998;53.416;6.730;2023-05-20T06:45:41;13.20;99.90
51982;DHT22;37998;53.416;6.730;2023-05-20T06:48:34;13.30;99.90
51982;DHT22;37998;53.416;6.730;2023-05-20T06:51:00;13.30;99.90
51982;DHT22;37998;53.416;6.730;2023-05-20T06:53:26;13.40;99.90
51982;DHT22;37998;53.416;6.730;2023-05-20T06:55:53;13.40;99.90
51982;DHT22;37998;53.416;6.730;2023-05-20T06:58:20;13.50;99.90
51982;DHT22;37998;53.416;6.730;2023-05-20T07:00:46;13.60;99.90
51982;DHT22;37998;53.416;6.730;2023-05-20T07:03:13;13.80;99.90
51982;DHT22;37998;53.416;6.730;2023-05-20T07:05:39;13.80;99.90
51982;DHT22;37998;53.416;6.730;2023-05-20T07:08:07;14.00;99.90
51982;DHT22;37998;53.416;6.730;2023-05-20T07:10:33;14.10;99.90
51982;DHT22;37998;53.416;6.730;2023-05-20T07:12:59;14.20;99.90
51982;DHT22;37998;53.416;6.730;2023-05-20T07:15:25;14.30;99.90
51982;DHT22;37998;53.416;6.730;2023-05-20T07:17:51;14.40;99.90
51982;DHT22;37998;53.416;6.730;2023-05-20T07:20:17;14.50;99.90
51982;DHT22;37998;53.416;6.730;2023-05-20T07:22:43;14.60;99.90
51982;DHT22;37998;53.416;6.730;2023-05-20T07:25:16;14.70;99.90
51982;DHT22;37998;53.416;6.730;2023-05-20T07:27:42;14.80;99.90
51982;DHT22;37998;53.416;6.730;2023-05-20T07:30:08;14.80;99.90
51982;DHT22;37998;53.416;6.730;2023-05-20T07:32:36;14.90;99.90
51982;DHT22;37998;53.416;6.730;2023-05-20T07:35:02;15.00;99.90
51982;DHT22;37998;53.416;6.730;2023-05-20T07:37:29;15.10;99.90
51982;DHT22;37998;53.416;6.730;2023-05-20T07:39:55;15.20;99.90
51982;DHT22;37998;53.416;6.730;2023-05-20T07:42:21;15.30;99.90
51982;DHT22;37998;53.416;6.730;2023-05-20T07:44:50;15.40;99.90
51982;DHT22;37998;53.416;6.730;2023-05-20T07:47:16;15.60;99.90
51982;DHT22;37998;53.416;6.730;2023-05-20T07:49:42;15.60;99.90
51982;DHT22;37998;53.416;6.730;2023-05-20T07:52:09;15.60;99.90
51982;DHT22;37998;53.416;6.730;2023-05-20T07:54:35;15.60;99.90
51982;DHT22;37998;53.416;6.730;2023-05-20T07:57:01;15.60;99.90
51982;DHT22;37998;53.416;6.730;2023-05-20T07:59:28;16.10;99.90
51982;DHT22;37998;53.416;6.730;2023-05-20T08:01:54;15.80;99.90
51982;DHT22;37998;53.416;6.730;2023-05-20T08:04:21;15.90;99.90
51982;DHT22;37998;53.416;6.730;2023-05-20T08:06:47;16.00;99.90
51982;DHT22;37998;53.416;6.730;2023-05-20T08:09:20;16.30;99.90
51982;DHT22;37998;53.416;6.730;2023-05-20T08:11:49;16.30;99.90
51982;DHT22;37998;53.416;6.730;2023-05-20T08:14:16;16.50;99.90
51982;DHT22;37998;53.416;6.730;2023-05-20T08:16:45;16.60;99.90
51982;DHT22;37998;53.416;6.730;2023-05-20T08:19:11;16.90;99.90
51982;DHT22;37998;53.416;6.730;2023-05-20T08:21:37;17.10;99.90
51982;DHT22;37998;53.416;6.730;2023-05-20T08:24:04;17.10;99.90
51982;DHT22;37998;53.416;6.730;2023-05-20T08:26:31;17.20;99.90
51982;DHT22;37998;53.416;6.730;2023-05-20T08:28:57;17.30;99.90
51982;DHT22;37998;53.416;6.730;2023-05-20T08:31:23;17.30;99.80
51982;DHT22;37998;53.416;6.730;2023-05-20T08:33:49;17.20;99.90
51982;DHT22;37998;53.416;6.730;2023-05-20T08:36:15;17.20;99.90
51982;DHT22;37998;53.416;6.730;2023-05-20T08:38:41;17.00;99.90
51982;DHT22;37998;53.416;6.730;2023-05-20T08:41:07;16.80;99.90
51982;DHT22;37998;53.416;6.730;2023-05-20T08:43:36;16.60;99.90
51982;DHT22;37998;53.416;6.730;2023-05-20T08:46:02;16.40;99.90
51982;DHT22;37998;53.416;6.730;2023-05-20T08:48:32;16.20;99.90
51982;DHT22;37998;53.416;6.730;2023-05-20T08:51:02;16.20;99.90
51982;DHT22;37998;53.416;6.730;2023-05-20T08:53:28;16.10;99.90
51982;DHT22;37998;53.416;6.730;2023-05-20T08:55:56;16.00;99.90
51982;DHT22;37998;53.416;6.730;2023-05-20T08:58:28;16.00;99.90
51982;DHT22;37998;53.416;6.730;2023-05-20T09:00:54;15.90;99.90
51982;DHT22;37998;53.416;6.730;2023-05-20T09:03:20;16.00;99.90
51982;DHT22;37998;53.416;6.730;2023-05-20T09:05:47;15.80;99.90
51982;DHT22;37998;53.416;6.730;2023-05-20T09:08:13;15.90;99.90
51982;DHT22;37998;53.416;6.730;2023-05-20T09:10:40;15.80;99.90
51982;DHT22;37998;53.416;6.730;2023-05-20T09:13:07;15.70;99.90
51982;DHT22;37998;53.416;6.730;2023-05-20T09:15:34;15.70;99.90
51982;DHT22;37998;53.416;6.730;2023-05-20T09:18:04;15.70;99.90
51982;DHT22;37998;53.416;6.730;2023-05-20T09:20:33;15.60;99.90
51982;DHT22;37998;53.416;6.730;2023-05-20T09:23:01;15.70;99.90
51982;DHT22;37998;53.416;6.730;2023-05-20T09:25:27;15.70;99.90
51982;DHT22;37998;53.416;6.730;2023-05-20T09:27:56;15.80;99.90
51982;DHT22;37998;53.416;6.730;2023-05-20T09:30:23;15.80;99.90
51982;DHT22;37998;53.416;6.730;2023-05-20T09:32:56;15.80;99.90
51982;DHT22;37998;53.416;6.730;2023-05-20T09:35:23;15.90;99.90
51982;DHT22;37998;53.416;6.730;2023-05-20T09:37:56;15.80;99.90
51982;DHT22;37998;53.416;6.730;2023-05-20T09:40:27;15.80;99.90
51982;DHT22;37998;53.416;6.730;2023-05-20T09:43:02;15.90;99.90
51982;DHT22;37998;53.416;6.730;2023-05-20T09:45:28;15.90;99.90
51982;DHT22;37998;53.416;6.730;2023-05-20T09:47:55;15.90;99.90
51982;DHT22;37998;53.416;6.730;2023-05-20T09:50:22;16.00;99.90
51982;DHT22;37998;53.416;6.730;2023-05-20T09:52:52;16.10;99.90
51982;DHT22;37998;53.416;6.730;2023-05-20T09:55:21;16.20;99.90
51982;DHT22;37998;53.416;6.730;2023-05-20T09:57:47;16.10;99.90
51982;DHT22;37998;53.416;6.730;2023-05-20T10:00:14;16.10;99.90
51982;DHT22;37998;53.416;6.730;2023-05-20T10:02:51;16.10;99.90
51982;DHT22;37998;53.416;6.730;2023-05-20T10:05:25;16.10;99.90
51982;DHT22;37998;53.416;6.730;2023-05-20T10:08:20;16.00;99.90
51982;DHT22;37998;53.416;6.730;2023-05-20T10:11:15;16.10;99.90
51982;DHT22;37998;53.416;6.730;2023-05-20T10:21:40;16.30;99.90
51982;DHT22;37998;53.416;6.730;2023-05-20T10:24:08;16.30;99.90
51982;DHT22;37998;53.416;6.730;2023-05-20T10:26:39;16.30;99.90
51982;DHT22;37998;53.416;6.730;2023-05-20T10:29:17;16.30;99.90
51982;DHT22;37998;53.416;6.730;2023-05-20T10:31:49;16.10;99.90
51982;DHT22;37998;53.416;6.730;2023-05-20T10:34:17;16.10;99.90
51982;DHT22;37998;53.416;6.730;2023-05-20T10:36:56;16.10;99.90
51982;DHT22;37998;53.416;6.730;2023-05-20T10:39:28;16.10;99.90
51982;DHT22;37998;53.416;6.730;2023-05-20T10:42:07;16.20;99.90
51982;DHT22;37998;53.416;6.730;2023-05-20T10:44:43;16.30;99.90
51982;DHT22;37998;53.416;6.730;2023-05-20T10:47:09;16.30;99.90
51982;DHT22;37998;53.416;6.730;2023-05-20T10:49:40;16.20;99.90
51982;DHT22;37998;53.416;6.730;2023-05-20T10:52:08;16.30;99.90
51982;DHT22;37998;53.416;6.730;2023-05-20T10:54:35;16.20;99.90
51982;DHT22;37998;53.416;6.730;2023-05-20T10:57:05;16.30;99.90
51982;DHT22;37998;53.416;6.730;2023-05-20T10:59:35;16.30;99.90
51982;DHT22;37998;53.416;6.730;2023-05-20T11:02:02;16.40;99.90
51982;DHT22;37998;53.416;6.730;2023-05-20T11:04:29;16.40;99.90
51982;DHT22;37998;53.416;6.730;2023-05-20T11:06:55;16.50;99.90
51982;DHT22;37998;53.416;6.730;2023-05-20T11:09:22;16.60;99.90
51982;DHT22;37998;53.416;6.730;2023-05-20T11:11:50;16.60;99.90
51982;DHT22;37998;53.416;6.730;2023-05-20T11:14:16;16.70;99.90
51982;DHT22;37998;53.416;6.730;2023-05-20T11:16:45;16.70;99.90
51982;DHT22;37998;53.416;6.730;2023-05-20T11:19:17;16.70;99.90
51982;DHT22;37998;53.416;6.730;2023-05-20T11:21:44;16.80;99.90
51982;DHT22;37998;53.416;6.730;2023-05-20T11:24:11;16.80;99.90
51982;DHT22;37998;53.416;6.730;2023-05-20T11:26:38;16.90;99.90
51982;DHT22;37998;53.416;6.730;2023-05-20T11:29:04;16.80;99.90
51982;DHT22;37998;53.416;6.730;2023-05-20T11:31:31;16.90;99.90
51982;DHT22;37998;53.416;6.730;2023-05-20T11:34:00;17.10;99.90
51982;DHT22;37998;53.416;6.730;2023-05-20T11:36:27;17.00;99.90
51982;DHT22;37998;53.416;6.730;2023-05-20T11:38:55;17.10;99.90
51982;DHT22;37998;53.416;6.730;2023-05-20T11:41:27;17.10;99.90
51982;DHT22;37998;53.416;6.730;2023-05-20T11:43:57;17.00;99.90
51982;DHT22;37998;53.416;6.730;2023-05-20T11:46:26;17.10;99.90
51982;DHT22;37998;53.416;6.730;2023-05-20T11:48:56;17.00;99.90
51982;DHT22;37998;53.416;6.730;2023-05-20T11:51:28;17.00;99.90
51982;DHT22;37998;53.416;6.730;2023-05-20T11:54:02;17.10;99.90
51982;DHT22;37998;53.416;6.730;2023-05-20T11:56:29;17.10;99.90
51982;DHT22;37998;53.416;6.730;2023-05-20T11:58:59;17.20;99.90
51982;DHT22;37998;53.416;6.730;2023-05-20T12:01:26;17.30;99.90
51982;DHT22;37998;53.416;6.730;2023-05-20T12:03:55;17.20;99.90
51982;DHT22;37998;53.416;6.730;2023-05-20T12:06:20;17.10;99.90
51982;DHT22;37998;53.416;6.730;2023-05-20T12:08:46;17.20;99.90
51982;DHT22;37998;53.416;6.730;2023-05-20T12:11:12;17.40;99.90
51982;DHT22;37998;53.416;6.730;2023-05-20T12:13:39;17.40;99.90
51982;DHT22;37998;53.416;6.730;2023-05-20T12:16:05;17.20;99.90
51982;DHT22;37998;53.416;6.730;2023-05-20T12:18:32;17.30;99.90
51982;DHT22;37998;53.416;6.730;2023-05-20T12:20:58;17.30;99.90
51982;DHT22;37998;53.416;6.730;2023-05-20T12:23:24;17.30;99.90
51982;DHT22;37998;53.416;6.730;2023-05-20T12:25:51;17.40;99.90
51982;DHT22;37998;53.416;6.730;2023-05-20T12:28:17;17.40;99.90
51982;DHT22;37998;53.416;6.730;2023-05-20T12:30:42;17.40;99.90
51982;DHT22;37998;53.416;6.730;2023-05-20T12:33:08;17.40;99.90
51982;DHT22;37998;53.416;6.730;2023-05-20T12:35:42;17.40;99.90
51982;DHT22;37998;53.416;6.730;2023-05-20T12:38:08;17.50;99.90
51982;DHT22;37998;53.416;6.730;2023-05-20T12:40:35;17.50;99.90
51982;DHT22;37998;53.416;6.730;2023-05-20T12:43:02;17.60;99.90
51982;DHT22;37998;53.416;6.730;2023-05-20T12:45:28;17.70;99.90
51982;DHT22;37998;53.416;6.730;2023-05-20T12:47:54;17.60;99.90
51982;DHT22;37998;53.416;6.730;2023-05-20T12:50:21;17.70;99.90
51982;DHT22;37998;53.416;6.730;2023-05-20T12:52:47;17.70;99.90
51982;DHT22;37998;53.416;6.730;2023-05-20T12:55:13;17.70;99.90
51982;DHT22;37998;53.416;6.730;2023-05-20T12:57:40;17.70;99.90
51982;DHT22;37998;53.416;6.730;2023-05-20T13:00:08;17.80;99.90
51982;DHT22;37998;53.416;6.730;2023-05-20T13:02:35;17.70;99.90
51982;DHT22;37998;53.416;6.730;2023-05-20T13:05:01;17.60;99.90
51982;DHT22;37998;53.416;6.730;2023-05-20T13:07:27;17.60;99.90
51982;DHT22;37998;53.416;6.730;2023-05-20T13:09:53;17.50;99.90
51982;DHT22;37998;53.416;6.730;2023-05-20T13:12:19;17.70;99.90
51982;DHT22;37998;53.416;6.730;2023-05-20T13:14:45;17.80;99.90
51982;DHT22;37998;53.416;6.730;2023-05-20T13:17:11;17.80;99.90
51982;DHT22;37998;53.416;6.730;2023-05-20T13:19:37;17.90;99.90
51982;DHT22;37998;53.416;6.730;2023-05-20T13:22:06;18.00;99.90
51982;DHT22;37998;53.416;6.730;2023-05-20T13:24:33;17.90;99.90
51982;DHT22;37998;53.416;6.730;2023-05-20T13:26:59;17.90;99.90
51982;DHT22;37998;53.416;6.730;2023-05-20T13:29:26;17.70;99.90
51982;DHT22;37998;53.416;6.730;2023-05-20T13:31:52;17.70;99.90
51982;DHT22;37998;53.416;6.730;2023-05-20T13:34:18;17.80;99.90
51982;DHT22;37998;53.416;6.730;2023-05-20T13:36:44;17.90;99.90
51982;DHT22;37998;53.416;6.730;2023-05-20T13:39:13;17.80;99.90
51982;DHT22;37998;53.416;6.730;2023-05-20T13:41:39;17.70;99.90
51982;DHT22;37998;53.416;6.730;2023-05-20T13:44:05;17.80;99.90
51982;DHT22;37998;53.416;6.730;2023-05-20T13:46:32;17.80;99.90
51982;DHT22;37998;53.416;6.730;2023-05-20T13:48:58;17.80;99.90
51982;DHT22;37998;53.416;6.730;2023-05-20T13:51:24;17.90;99.90
51982;DHT22;37998;53.416;6.730;2023-05-20T13:53:50;18.10;99.90
51982;DHT22;37998;53.416;6.730;2023-05-20T13:56:16;18.20;99.90
51982;DHT22;37998;53.416;6.730;2023-05-20T13:58:42;18.20;99.90
51982;DHT22;37998;53.416;6.730;2023-05-20T14:01:08;18.10;99.90
51982;DHT22;37998;53.416;6.730;2023-05-20T14:03:33;18.10;99.90
51982;DHT22;37998;53.416;6.730;2023-05-20T14:06:01;18.20;99.90
51982;DHT22;37998;53.416;6.730;2023-05-20T14:08:27;18.10;99.90
51982;DHT22;37998;53.416;6.730;2023-05-20T14:10:53;18.10;99.90
51982;DHT22;37998;53.416;6.730;2023-05-20T14:13:21;18.10;99.90
51982;DHT22;37998;53.416;6.730;2023-05-20T14:15:47;18.20;99.90
51982;DHT22;37998;53.416;6.730;2023-05-20T14:18:18;18.30;99.90
51982;DHT22;37998;53.416;6.730;2023-05-20T14:20:44;18.40;99.90
51982;DHT22;37998;53.416;6.730;2023-05-20T14:23:10;18.30;99.90
51982;DHT22;37998;53.416;6.730;2023-05-20T14:25:37;18.20;99.90
51982;DHT22;37998;53.416;6.730;2023-05-20T14:28:03;18.30;99.90
51982;DHT22;37998;53.416;6.730;2023-05-20T14:30:29;18.40;99.90
51982;DHT22;37998;53.416;6.730;2023-05-20T14:32:55;18.40;99.90
51982;DHT22;37998;53.416;6.730;2023-05-20T14:35:21;18.50;99.90
51982;DHT22;37998;53.416;6.730;2023-05-20T14:37:47;18.40;99.90
51982;DHT22;37998;53.416;6.730;2023-05-20T14:40:13;18.40;99.90
51982;DHT22;37998;53.416;6.730;2023-05-20T14:42:39;18.40;99.90
51982;DHT22;37998;53.416;6.730;2023-05-20T14:45:10;18.30;99.90
51982;DHT22;37998;53.416;6.730;2023-05-20T14:47:36;18.40;99.90
51982;DHT22;37998;53.416;6.730;2023-05-20T14:50:05;18.30;99.90
51982;DHT22;37998;53.416;6.730;2023-05-20T14:52:33;18.40;99.90
51982;DHT22;37998;53.416;6.730;2023-05-20T14:55:00;18.30;99.90
51982;DHT22;37998;53.416;6.730;2023-05-20T14:57:26;18.20;99.90
51982;DHT22;37998;53.416;6.730;2023-05-20T14:59:52;18.20;99.90
51982;DHT22;37998;53.416;6.730;2023-05-20T15:02:18;18.20;99.90
51982;DHT22;37998;53.416;6.730;2023-05-20T15:04:44;18.30;99.90
51982;DHT22;37998;53.416;6.730;2023-05-20T15:07:15;18.30;99.90
51982;DHT22;37998;53.416;6.730;2023-05-20T15:09:41;18.30;99.90
51982;DHT22;37998;53.416;6.730;2023-05-20T15:12:09;18.20;99.90
51982;DHT22;37998;53.416;6.730;2023-05-20T15:14:36;18.20;99.90
51982;DHT22;37998;53.416;6.730;2023-05-20T15:17:02;18.20;99.90
51982;DHT22;37998;53.416;6.730;2023-05-20T15:19:30;18.10;99.90
51982;DHT22;37998;53.416;6.730;2023-05-20T15:21:57;18.10;99.90
51982;DHT22;37998;53.416;6.730;2023-05-20T15:24:23;18.10;99.90
51982;DHT22;37998;53.416;6.730;2023-05-20T15:26:48;18.00;99.90
51982;DHT22;37998;53.416;6.730;2023-05-20T15:29:14;17.90;99.90
51982;DHT22;37998;53.416;6.730;2023-05-20T15:31:41;17.90;99.90
51982;DHT22;37998;53.416;6.730;2023-05-20T15:34:07;18.00;99.90
51982;DHT22;37998;53.416;6.730;2023-05-20T15:36:32;18.10;99.90
51982;DHT22;37998;53.416;6.730;2023-05-20T15:38:58;18.10;99.90